Time;durP1;ratioP1;P1;durP2;ratioP2;P2;SDS_P1;SDS_P2;PMS_P1;PMS_P2;Temp;Humidity;BMP_temperature;BMP_pressure;BME280_temperature;BME280_humidity;BME280_pressure;Samples;Min_cycle;Max_cycle;Signal;HPM_P1;HPM_P2
2021/07/30 00:00:59;;;;;;;6.57;5.10;;;15.70;99.90;;;;;;6224602;28;20121;-79
2021/07/30 00:04:01;;;;;;;6.18;4.80;;;15.60;99.90;;;;;;6224045;28;20128;-78
2021/07/30 00:07:05;;;;;;;4.95;4.45;;;15.60;99.90;;;;;;6223853;28;20172;-77
2021/07/30 00:10:07;;;;;;;4.70;3.55;;;15.60;99.90;;;;;;6224259;28;20133;-78
2021/07/30 00:13:09;;;;;;;4.93;4.25;;;15.60;99.90;;;;;;6223645;28;20066;-78
2021/07/30 00:16:10;;;;;;;7.80;4.95;;;15.60;99.90;;;;;;6223343;28;20172;-78
2021/07/30 00:19:12;;;;;;;4.85;3.75;;;15.60;99.90;;;;;;6223559;28;20206;-77
2021/07/30 00:22:15;;;;;;;6.57;4.45;;;15.50;99.90;;;;;;6224464;28;20125;-78
2021/07/30 00:25:17;;;;;;;9.40;4.22;;;15.50;99.90;;;;;;6223518;28;20458;-77
2021/07/30 00:28:19;;;;;;;8.25;3.80;;;15.40;99.90;;;;;;6223972;28;20053;-78
2021/07/30 00:31:21;;;;;;;7.20;3.83;;;15.40;99.90;;;;;;6223768;28;20126;-77
2021/07/30 00:34:23;;;;;;;5.68;4.38;;;15.40;99.90;;;;;;6223650;28;20127;-78
2021/07/30 00:37:26;;;;;;;4.72;4.22;;;15.30;99.90;;;;;;6223626;28;20064;-77
2021/07/30 00:40:28;;;;;;;6.20;4.20;;;15.30;99.90;;;;;;6229768;28;20136;-78
2021/07/30 00:43:29;;;;;;;8.57;3.63;;;15.20;99.90;;;;;;6246928;28;20061;-77
2021/07/30 00:46:31;;;;;;;8.13;4.32;;;15.20;99.90;;;;;;6246438;28;20124;-78
2021/07/30 00:49:35;;;;;;;6.65;5.28;;;15.10;99.90;;;;;;6247343;28;20084;-77
2021/07/30 00:52:39;;;;;;;5.18;4.60;;;15.00;99.90;;;;;;6241811;28;20053;-78
2021/07/30 00:55:41;;;;;;;7.68;4.53;;;15.00;99.90;;;;;;6246289;28;20091;-78
2021/07/30 00:58:43;;;;;;;4.90;4.47;;;14.90;99.90;;;;;;6246372;28;20453;-77
2021/07/30 01:01:46;;;;;;;4.95;4.38;;;14.90;99.90;;;;;;6247509;28;20065;-78
2021/07/30 01:04:48;;;;;;;6.07;4.30;;;14.80;99.90;;;;;;6245221;28;20075;-78
2021/07/30 01:07:51;;;;;;;4.22;3.30;;;14.80;99.90;;;;;;6245853;28;20493;-78
2021/07/30 01:10:54;;;;;;;9.60;4.47;;;14.80;99.90;;;;;;6245724;28;20136;-77
2021/07/30 01:13:55;;;;;;;6.57;4.60;;;14.80;99.90;;;;;;6246678;28;20080;-78
2021/07/30 01:16:57;;;;;;;6.43;4.70;;;14.70;99.90;;;;;;6245558;28;20049;-78
2021/07/30 01:19:59;;;;;;;4.75;4.13;;;14.80;99.90;;;;;;6245807;28;20081;-78
2021/07/30 01:23:03;;;;;;;10.00;4.13;;;14.80;99.90;;;;;;6246228;28;20072;-79
2021/07/30 01:26:05;;;;;;;16.02;5.53;;;14.70;99.90;;;;;;6245806;28;20080;-78
2021/07/30 01:29:07;;;;;;;6.88;5.28;;;14.70;99.90;;;;;;6245699;28;20049;-78
2021/07/30 01:32:09;;;;;;;7.68;4.30;;;14.70;99.90;;;;;;6245476;28;20045;-78
2021/07/30 01:35:11;;;;;;;6.10;4.00;;;14.60;99.90;;;;;;6245732;28;20045;-78
2021/07/30 01:38:14;;;;;;;4.32;3.85;;;14.60;99.90;;;;;;6245493;28;20680;-77
2021/07/30 01:41:16;;;;;;;7.80;3.42;;;14.60;99.90;;;;;;6244702;28;20123;-77
2021/07/30 01:44:18;;;;;;;9.07;4.50;;;14.60;99.90;;;;;;6245319;28;20136;-78
2021/07/30 01:47:20;;;;;;;4.80;4.30;;;14.60;99.90;;;;;;6245257;28;20071;-77
2021/07/30 01:50:22;;;;;;;4.10;3.70;;;14.60;99.90;;;;;;6245618;28;20418;-77
2021/07/30 01:53:25;;;;;;;5.90;4.70;;;14.50;99.90;;;;;;6245891;28;20183;-78
2021/07/30 01:56:27;;;;;;;9.60;5.18;;;14.50;99.90;;;;;;6245241;28;20084;-77
2021/07/30 01:59:29;;;;;;;4.65;4.25;;;14.40;99.90;;;;;;6245335;28;20076;-76
2021/07/30 02:02:33;;;;;;;5.95;4.65;;;14.40;99.90;;;;;;6245607;28;20052;-77
2021/07/30 02:05:37;;;;;;;4.90;4.22;;;14.50;99.90;;;;;;6245870;28;20053;-78
2021/07/30 02:08:40;;;;;;;5.90;4.28;;;14.50;99.90;;;;;;6245297;28;20119;-78
2021/07/30 02:11:42;;;;;;;4.70;4.30;;;14.50;99.90;;;;;;6245204;28;20104;-77
2021/07/30 02:14:43;;;;;;;7.07;5.38;;;14.40;99.90;;;;;;6246360;28;20049;-76
2021/07/30 02:17:45;;;;;;;5.07;4.55;;;14.40;99.90;;;;;;6250361;28;20786;-77
2021/07/30 02:20:47;;;;;;;5.28;3.90;;;14.30;99.90;;;;;;6249836;28;20084;-77
2021/07/30 02:23:50;;;;;;;5.03;4.10;;;14.30;99.90;;;;;;6250082;28;20128;-77
2021/07/30 02:26:53;;;;;;;4.32;3.92;;;14.30;99.90;;;;;;6249471;28;20514;-77
2021/07/30 02:29:55;;;;;;;4.00;3.70;;;14.30;99.90;;;;;;6250587;28;20060;-75
2021/07/30 02:32:57;;;;;;;7.35;4.18;;;14.30;99.90;;;;;;6250175;28;20049;-77
2021/07/30 02:35:59;;;;;;;7.85;4.18;;;14.30;99.90;;;;;;6249461;28;20075;-77
2021/07/30 02:39:04;;;;;;;6.35;4.65;;;14.30;99.90;;;;;;6255682;22;20053;-80
2021/07/30 02:42:06;;;;;;;4.68;3.95;;;14.30;99.90;;;;;;6229596;28;20129;-80
2021/07/30 02:45:08;;;;;;;6.13;4.43;;;14.30;99.90;;;;;;6230323;28;20136;-80
2021/07/30 02:48:10;;;;;;;6.82;3.80;;;14.30;99.90;;;;;;6228973;28;20185;-80
2021/07/30 02:51:12;;;;;;;4.80;4.35;;;14.30;99.90;;;;;;6229243;28;20132;-80
2021/07/30 02:54:16;;;;;;;5.78;4.43;;;14.40;99.90;;;;;;6229464;28;20497;-80
2021/07/30 02:57:17;;;;;;;5.53;3.63;;;14.40;99.90;;;;;;6228390;28;20113;-79
2021/07/30 03:00:19;;;;;;;5.85;3.38;;;14.40;99.90;;;;;;6228703;28;20507;-80
2021/07/30 03:03:21;;;;;;;5.18;4.03;;;14.50;99.90;;;;;;6229116;28;20127;-81
2021/07/30 03:06:23;;;;;;;7.28;5.50;;;14.50;99.90;;;;;;6228805;28;20077;-80
2021/07/30 03:09:26;;;;;;;4.03;3.67;;;14.50;99.90;;;;;;6229449;28;20132;-80
2021/07/30 03:12:28;;;;;;;6.43;4.68;;;14.60;99.90;;;;;;6228811;28;20136;-80
2021/07/30 03:15:30;;;;;;;4.18;3.83;;;14.50;99.90;;;;;;6228337;28;20073;-80
2021/07/30 03:18:32;;;;;;;9.93;4.10;;;14.60;99.90;;;;;;6227600;28;20498;-80
2021/07/30 03:21:34;;;;;;;5.03;3.90;;;14.60;99.90;;;;;;6229384;28;20061;-81
2021/07/30 03:24:37;;;;;;;5.68;4.00;;;14.60;99.90;;;;;;6227918;28;20078;-80
2021/07/30 03:27:41;;;;;;;4.60;4.00;;;14.60;99.90;;;;;;6227641;28;20069;-81
2021/07/30 03:30:43;;;;;;;4.70;3.20;;;14.70;99.90;;;;;;6228679;28;20045;-79
2021/07/30 03:33:45;;;;;;;4.10;3.35;;;14.60;99.90;;;;;;6228924;28;20456;-79
2021/07/30 03:36:47;;;;;;;5.53;3.47;;;14.70;99.90;;;;;;6227996;28;20102;-79
2021/07/30 03:39:50;;;;;;;5.63;3.58;;;14.70;99.90;;;;;;6228274;28;20052;-79
2021/07/30 03:42:52;;;;;;;11.93;4.38;;;14.70;99.90;;;;;;6227328;28;20129;-79
2021/07/30 03:45:54;;;;;;;5.32;3.42;;;14.70;99.90;;;;;;6228184;28;20199;-80
2021/07/30 03:48:56;;;;;;;3.47;3.17;;;14.60;99.90;;;;;;6228063;28;20092;-80
2021/07/30 03:51:57;;;;;;;4.65;3.75;;;14.60;99.90;;;;;;6227812;28;20132;-80
2021/07/30 03:55:01;;;;;;;4.20;3.85;;;14.60;99.90;;;;;;6228311;28;20045;-79
2021/07/30 03:58:02;;;;;;;5.05;3.38;;;14.60;99.90;;;;;;6228030;28;20500;-80
2021/07/30 04:01:08;;;;;;;5.63;3.90;;;14.60;99.90;;;;;;6228656;28;20139;-80
2021/07/30 04:04:10;;;;;;;6.47;3.70;;;14.50;99.90;;;;;;6227933;28;20049;-79
2021/07/30 04:07:11;;;;;;;5.18;4.28;;;14.40;99.90;;;;;;6227832;28;20116;-79
2021/07/30 04:10:15;;;;;;;4.85;4.43;;;14.40;99.90;;;;;;6227831;28;20573;-79
2021/07/30 04:13:16;;;;;;;3.97;3.22;;;14.40;99.90;;;;;;6226642;28;20052;-79
2021/07/30 04:16:18;;;;;;;4.95;3.63;;;14.30;99.90;;;;;;6226606;28;20137;-79
2021/07/30 04:19:20;;;;;;;10.75;4.13;;;14.40;99.90;;;;;;6226389;28;20415;-79
2021/07/30 04:22:22;;;;;;;8.40;3.20;;;14.40;99.90;;;;;;6226930;28;20046;-79
2021/07/30 04:25:25;;;;;;;5.97;3.10;;;14.40;99.90;;;;;;6227378;28;20139;-79
2021/07/30 04:28:27;;;;;;;7.65;5.35;;;14.50;99.90;;;;;;6226478;28;20498;-79
2021/07/30 04:31:28;;;;;;;11.45;4.32;;;14.60;99.90;;;;;;6227148;28;20133;-79
2021/07/30 04:34:30;;;;;;;6.25;3.75;;;14.70;99.90;;;;;;6227267;28;20139;-78
2021/07/30 04:37:32;;;;;;;16.58;6.03;;;14.70;99.90;;;;;;6227419;28;20086;-79
2021/07/30 04:40:37;;;;;;;14.73;5.68;;;14.80;99.90;;;;;;6226243;28;20046;-79
2021/07/30 04:43:39;;;;;;;26.83;7.40;;;14.90;99.90;;;;;;6225416;28;20419;-79
2021/07/30 04:46:41;;;;;;;4.15;3.00;;;15.00;99.90;;;;;;6226437;28;20121;-79
2021/07/30 04:49:43;;;;;;;4.85;3.28;;;15.20;99.90;;;;;;6226862;28;20132;-79
2021/07/30 04:52:45;;;;;;;3.88;3.45;;;15.20;99.90;;;;;;6227176;28;20212;-80
2021/07/30 04:55:48;;;;;;;7.10;3.42;;;15.20;99.80;;;;;;6226168;28;20046;-80
2021/07/30 04:58:50;;;;;;;5.65;3.75;;;15.20;99.50;;;;;;6225321;28;20519;-79
2021/07/30 05:01:52;;;;;;;4.82;2.92;;;15.20;99.80;;;;;;6226726;28;20056;-79
2021/07/30 05:04:55;;;;;;;5.35;3.50;;;15.40;99.90;;;;;;6226958;28;20061;-79
2021/07/30 05:07:57;;;;;;;8.95;4.15;;;15.50;99.40;;;;;;6224518;28;20056;-80
2021/07/30 05:11:00;;;;;;;4.25;2.80;;;15.50;99.00;;;;;;6225503;28;20050;-79
2021/07/30 05:14:02;;;;;;;7.97;6.90;;;15.60;99.10;;;;;;6225588;28;20097;-78
2021/07/30 05:17:04;;;;;;;14.50;4.15;;;15.80;98.80;;;;;;6224998;28;20074;-79
2021/07/30 05:20:07;;;;;;;5.38;2.58;;;16.10;98.40;;;;;;6225828;28;20129;-80
2021/07/30 05:23:10;;;;;;;9.13;3.50;;;16.50;97.70;;;;;;6225263;28;20046;-79
2021/07/30 05:26:13;;;;;;;3.85;2.85;;;17.50;94.10;;;;;;6226623;28;20057;-79
2021/07/30 05:29:14;;;;;;;9.63;3.20;;;17.80;91.40;;;;;;6226532;28;20077;-79
2021/07/30 05:32:16;;;;;;;6.25;2.90;;;17.70;91.40;;;;;;6225644;28;20153;-79
2021/07/30 05:35:18;;;;;;;4.47;3.25;;;17.60;91.80;;;;;;6227281;28;20049;-79
2021/07/30 05:38:20;;;;;;;4.05;3.08;;;17.70;92.10;;;;;;6225498;28;20117;-79
2021/07/30 05:41:23;;;;;;;4.78;2.63;;;17.80;92.10;;;;;;6226502;28;20137;-80
2021/07/30 05:44:25;;;;;;;4.10;3.33;;;17.90;92.00;;;;;;6225709;28;20180;-78
2021/07/30 05:47:27;;;;;;;5.80;3.97;;;18.00;91.90;;;;;;6225732;28;20050;-80
2021/07/30 05:50:29;;;;;;;5.50;3.38;;;18.20;91.30;;;;;;6225439;28;20516;-79
2021/07/30 05:53:30;;;;;;;4.10;3.05;;;18.40;90.80;;;;;;6226680;28;20133;-79
2021/07/30 05:56:34;;;;;;;3.95;3.55;;;18.60;88.50;;;;;;6225623;28;20058;-79
2021/07/30 05:59:36;;;;;;;4.40;3.85;;;18.80;86.50;;;;;;6225759;28;20148;-80
2021/07/30 06:02:38;;;;;;;5.75;3.50;;;19.00;85.00;;;;;;6225653;28;20132;-79
2021/07/30 06:05:39;;;;;;;6.38;3.67;;;19.20;84.10;;;;;;6209112;28;20114;-79
2021/07/30 06:08:41;;;;;;;8.07;3.50;;;19.30;83.50;;;;;;6199947;28;20172;-79
2021/07/30 06:11:44;;;;;;;7.80;4.18;;;19.40;83.20;;;;;;6200569;28;20136;-79
2021/07/30 06:14:46;;;;;;;14.57;4.72;;;19.70;82.10;;;;;;6202004;28;20052;-79
2021/07/30 06:17:48;;;;;;;9.05;3.83;;;19.80;81.30;;;;;;6201943;28;20140;-79
2021/07/30 06:20:51;;;;;;;7.63;3.88;;;20.10;80.20;;;;;;6201296;28;20129;-80
2021/07/30 06:23:52;;;;;;;4.13;3.40;;;20.20;78.80;;;;;;6201593;28;20250;-80
2021/07/30 06:26:56;;;;;;;4.45;2.97;;;20.50;77.60;;;;;;6200638;28;20487;-79
2021/07/30 06:29:57;;;;;;;7.03;3.70;;;20.80;76.00;;;;;;6201748;28;20058;-79
2021/07/30 06:32:59;;;;;;;5.22;3.17;;;21.20;75.00;;;;;;6200752;28;20516;-79
2021/07/30 06:36:03;;;;;;;3.85;3.30;;;21.60;72.90;;;;;;6201210;28;20133;-80
2021/07/30 06:39:06;;;;;;;4.40;3.05;;;22.00;70.70;;;;;;6208403;28;20686;-79
2021/07/30 06:42:09;;;;;;;3.60;3.00;;;22.40;69.10;;;;;;6226338;28;20050;-79
2021/07/30 06:45:11;;;;;;;5.30;3.10;;;22.70;67.20;;;;;;6223945;28;20132;-80
2021/07/30 06:48:13;;;;;;;6.38;2.97;;;22.90;65.80;;;;;;6203209;28;20116;-80
2021/07/30 06:51:15;;;;;;;3.63;2.78;;;22.90;65.30;;;;;;6201052;28;20116;-79
2021/07/30 06:54:17;;;;;;;7.75;3.38;;;22.70;64.90;;;;;;6200051;28;20403;-80
2021/07/30 06:57:20;;;;;;;4.88;2.42;;;22.70;65.30;;;;;;6199628;28;20129;-79
2021/07/30 07:00:22;;;;;;;5.78;3.40;;;22.70;65.70;;;;;;6199740;28;20097;-80
2021/07/30 07:03:24;;;;;;;4.18;2.30;;;22.90;65.10;;;;;;6202182;28;20062;-78
2021/07/30 07:06:25;;;;;;;4.65;2.83;;;23.00;64.90;;;;;;6202147;28;20046;-78
2021/07/30 07:09:27;;;;;;;3.78;2.20;;;23.10;64.60;;;;;;6202276;28;20089;-78
2021/07/30 07:12:30;;;;;;;3.17;2.50;;;23.10;64.70;;;;;;6203079;28;20129;-78
2021/07/30 07:15:32;;;;;;;4.35;3.88;;;23.10;63.70;;;;;;6204418;28;20133;-78
2021/07/30 07:18:34;;;;;;;4.63;2.83;;;23.10;63.50;;;;;;6203953;28;20101;-78
2021/07/30 07:21:36;;;;;;;3.42;2.58;;;23.20;63.00;;;;;;6203966;28;20141;-78
2021/07/30 07:24:38;;;;;;;6.57;2.90;;;23.30;62.80;;;;;;6201968;28;20571;-77
2021/07/30 07:27:41;;;;;;;8.48;2.97;;;23.30;61.90;;;;;;6203234;28;20089;-78
2021/07/30 07:30:43;;;;;;;3.58;3.08;;;23.30;61.80;;;;;;6202403;28;20129;-78
2021/07/30 07:33:45;;;;;;;3.38;2.42;;;23.50;62.00;;;;;;6204373;28;20092;-78
2021/07/30 07:36:47;;;;;;;5.68;2.78;;;23.60;62.60;;;;;;6199932;28;20133;-78
2021/07/30 07:39:49;;;;;;;4.80;2.47;;;23.70;61.90;;;;;;6200074;28;20140;-78
2021/07/30 07:42:52;;;;;;;4.95;2.75;;;23.80;61.40;;;;;;6200540;28;20090;-77
2021/07/30 07:45:54;;;;;;;3.03;2.45;;;23.90;61.20;;;;;;6201623;28;20148;-77
2021/07/30 07:48:56;;;;;;;4.88;2.65;;;24.00;61.30;;;;;;6207867;28;20054;-77
2021/07/30 07:51:58;;;;;;;4.18;2.30;;;24.20;60.10;;;;;;6200758;28;20137;-78
2021/07/30 07:54:59;;;;;;;3.75;2.75;;;24.30;60.50;;;;;;6199757;28;20548;-77
2021/07/30 07:58:03;;;;;;;3.92;2.47;;;24.50;60.40;;;;;;6200457;28;20132;-78
2021/07/30 08:01:04;;;;;;;4.05;2.42;;;24.60;59.90;;;;;;6200206;28;20682;-78
2021/07/30 08:04:06;;;;;;;3.17;2.22;;;24.80;59.80;;;;;;6199968;28;20054;-77
2021/07/30 08:07:10;;;;;;;7.15;2.50;;;24.90;58.50;;;;;;6200464;28;20052;-78
2021/07/30 08:10:12;;;;;;;4.30;2.47;;;24.90;59.80;;;;;;6201794;28;20416;-78
2021/07/30 08:13:15;;;;;;;6.72;2.42;;;24.90;59.40;;;;;;6207317;28;20072;-78
2021/07/30 08:16:24;;;;;;;5.72;2.58;;;24.90;59.70;;;;;;6224768;28;20622;-78
2021/07/30 08:19:25;;;;;;;5.60;2.45;;;25.10;59.60;;;;;;6224936;28;20057;-77
2021/07/30 08:22:27;;;;;;;3.33;2.47;;;25.20;58.60;;;;;;6223422;28;20569;-77
2021/07/30 08:25:29;;;;;;;2.75;2.22;;;25.30;57.90;;;;;;6224565;28;20054;-78
2021/07/30 08:28:32;;;;;;;5.90;2.83;;;25.40;58.80;;;;;;6224655;28;20089;-77
2021/07/30 08:31:35;;;;;;;2.40;1.88;;;25.50;57.30;;;;;;6224066;28;20093;-77
2021/07/30 08:34:38;;;;;;;5.07;3.03;;;25.50;56.60;;;;;;6223588;28;20061;-78
2021/07/30 08:37:39;;;;;;;3.50;3.17;;;25.70;56.30;;;;;;6226346;28;20184;-78
2021/07/30 08:40:41;;;;;;;4.25;2.67;;;25.80;56.60;;;;;;6267035;22;20103;-75
2021/07/30 08:43:44;;;;;;;6.72;3.38;;;25.90;55.70;;;;;;6247085;28;20176;-74
2021/07/30 08:46:48;;;;;;;5.57;3.08;;;26.00;56.00;;;;;;6246616;28;20626;-74
2021/07/30 08:49:49;;;;;;;4.22;2.90;;;26.20;55.50;;;;;;6239593;28;20513;-73
2021/07/30 08:52:57;;;;;;;4.75;3.42;;;26.30;55.40;;;;;;6246271;28;20049;-73
2021/07/30 08:56:03;;;;;;;8.70;4.55;;;26.50;55.10;;;;;;6246204;28;20073;-74
2021/07/30 08:59:08;;;;;;;4.30;3.50;;;26.70;55.00;;;;;;6246324;28;20052;-73
2021/07/30 09:02:10;;;;;;;6.72;3.95;;;26.70;54.80;;;;;;6218115;28;20081;-73
2021/07/30 09:05:29;;;;;;;4.30;3.17;;;26.70;54.50;;;;;;6245852;28;20127;-73
2021/07/30 09:08:30;;;;;;;9.10;4.45;;;26.70;55.70;;;;;;6245372;28;20583;-74
2021/07/30 09:11:34;;;;;;;3.47;2.88;;;26.70;54.50;;;;;;6245796;28;20575;-73
2021/07/30 09:14:41;;;;;;;5.68;3.55;;;26.70;53.80;;;;;;6245301;28;20412;-74
2021/07/30 09:17:43;;;;;;;4.75;3.78;;;26.70;54.40;;;;;;6246042;28;20053;-73
2021/07/30 09:20:45;;;;;;;4.03;3.05;;;26.70;54.10;;;;;;6245597;28;20127;-73
2021/07/30 09:23:48;;;;;;;4.10;3.65;;;26.90;54.20;;;;;;6245390;28;20072;-74
2021/07/30 09:26:53;;;;;;;3.17;2.90;;;26.80;53.40;;;;;;6244926;28;20392;-74
2021/07/30 09:30:12;;;;;;;3.38;3.05;;;26.70;53.30;;;;;;6246092;28;20057;-74
2021/07/30 09:33:25;;;;;;;5.43;3.38;;;26.70;54.20;;;;;;6245523;28;20495;-74
2021/07/30 09:36:27;;;;;;;6.57;3.45;;;26.70;54.60;;;;;;6245114;28;20152;-74
2021/07/30 09:39:36;;;;;;;4.75;3.17;;;26.80;54.10;;;;;;6244974;28;20050;-74
2021/07/30 09:42:38;;;;;;;2.95;2.60;;;27.00;53.50;;;;;;6245664;28;20081;-74
2021/07/30 09:45:41;;;;;;;5.28;2.90;;;27.10;52.50;;;;;;6245836;28;20053;-74
2021/07/30 09:48:51;;;;;;;3.67;2.95;;;27.40;51.70;;;;;;6244594;28;20629;-74
2021/07/30 09:51:53;;;;;;;4.03;3.42;;;27.50;51.70;;;;;;6226851;28;20179;-75
2021/07/30 09:54:56;;;;;;;3.95;2.55;;;27.70;51.00;;;;;;6220713;28;20096;-75
2021/07/30 09:57:59;;;;;;;5.40;3.17;;;27.70;51.30;;;;;;6220669;28;20200;-75
2021/07/30 10:01:02;;;;;;;3.10;2.45;;;27.80;51.10;;;;;;6220370;28;20052;-73
2021/07/30 10:04:05;;;;;;;3.92;3.55;;;28.00;50.60;;;;;;6220500;28;20585;-74
2021/07/30 10:07:08;;;;;;;3.50;2.65;;;28.00;50.50;;;;;;6220347;28;20048;-75
2021/07/30 10:10:13;;;;;;;3.80;2.85;;;28.00;50.50;;;;;;6220966;28;20115;-74
2021/07/30 10:13:18;;;;;;;3.80;3.33;;;28.30;50.10;;;;;;6227282;28;20048;-74
2021/07/30 10:16:22;;;;;;;3.28;2.97;;;28.30;51.60;;;;;;6244731;28;20052;-74
2021/07/30 10:19:24;;;;;;;3.80;2.97;;;28.50;50.50;;;;;;6244790;28;20138;-75
2021/07/30 10:22:31;;;;;;;5.45;2.83;;;28.60;50.70;;;;;;6244772;28;20431;-74
2021/07/30 10:25:36;;;;;;;4.00;3.17;;;28.70;49.50;;;;;;6245058;28;20415;-75
2021/07/30 10:28:38;;;;;;;3.33;2.95;;;29.00;49.00;;;;;;6245014;28;20124;-75
2021/07/30 10:31:51;;;;;;;5.55;3.45;;;29.20;48.20;;;;;;6244706;28;20622;-75
2021/07/30 10:34:53;;;;;;;6.13;2.85;;;29.30;47.90;;;;;;6244917;28;20175;-75
2021/07/30 10:38:10;;;;;;;3.95;3.33;;;29.40;48.50;;;;;;6249046;28;20060;-75
2021/07/30 10:41:21;;;;;;;7.38;3.13;;;29.50;48.10;;;;;;6249319;28;20049;-75
2021/07/30 10:44:23;;;;;;;4.20;3.60;;;29.30;48.50;;;;;;6249291;28;20045;-75
2021/07/30 10:47:26;;;;;;;4.95;3.08;;;29.00;48.70;;;;;;6248926;28;20045;-75
2021/07/30 10:50:43;;;;;;;3.83;2.72;;;29.00;48.60;;;;;;6247574;28;20072;-75
2021/07/30 10:53:49;;;;;;;4.10;2.63;;;29.20;48.40;;;;;;6249231;28;20135;-74
2021/07/30 10:56:51;;;;;;;3.00;2.63;;;29.30;48.50;;;;;;6248599;28;20081;-75
2021/07/30 11:00:04;;;;;;;5.07;2.95;;;29.40;48.30;;;;;;6249298;28;20053;-75
2021/07/30 11:03:07;;;;;;;5.45;3.25;;;29.40;48.10;;;;;;6248826;28;20080;-74
2021/07/30 11:06:11;;;;;;;6.88;2.85;;;29.60;48.30;;;;;;6248964;28;20049;-75
2021/07/30 11:09:16;;;;;;;3.72;3.42;;;29.70;47.20;;;;;;6248339;28;20056;-74
2021/07/30 11:12:18;;;;;;;4.50;4.07;;;29.70;47.60;;;;;;6248147;28;20140;-75
2021/07/30 11:15:20;;;;;;;5.38;3.88;;;29.60;47.00;;;;;;6248215;28;20096;-75
2021/07/30 11:18:27;;;;;;;3.42;3.13;;;29.60;47.10;;;;;;6248321;28;20128;-75
2021/07/30 11:21:29;;;;;;;3.50;3.20;;;29.80;47.40;;;;;;6248808;28;20053;-75
2021/07/30 11:24:31;;;;;;;3.97;3.25;;;29.90;46.90;;;;;;6248309;28;20041;-75
2021/07/30 11:27:33;;;;;;;4.18;3.35;;;29.80;47.80;;;;;;6247719;28;20523;-75
2021/07/30 11:30:35;;;;;;;3.90;3.03;;;29.70;48.60;;;;;;6248240;28;20404;-74
2021/07/30 11:33:38;;;;;;;4.00;2.53;;;29.80;47.40;;;;;;6248438;28;20199;-75
2021/07/30 11:36:46;;;;;;;3.15;2.80;;;29.90;48.60;;;;;;6247634;28;20550;-75
2021/07/30 11:39:50;;;;;;;3.33;3.03;;;30.10;47.40;;;;;;6247733;28;20069;-74
2021/07/30 11:42:51;;;;;;;2.95;2.65;;;30.00;48.60;;;;;;6247860;28;20096;-74
2021/07/30 11:45:53;;;;;;;5.47;3.63;;;29.90;47.60;;;;;;6248186;28;20045;-74
2021/07/30 11:48:57;;;;;;;3.67;3.28;;;30.00;47.30;;;;;;6246628;28;20637;-74
2021/07/30 11:52:00;;;;;;;3.00;2.78;;;30.10;47.60;;;;;;6246140;28;20042;-74
2021/07/30 11:55:13;;;;;;;3.90;2.85;;;30.10;47.00;;;;;;6247316;28;20045;-74
2021/07/30 11:58:14;;;;;;;4.88;3.75;;;30.20;48.30;;;;;;6247467;28;20407;-75
2021/07/30 12:01:16;;;;;;;9.43;3.85;;;30.30;48.20;;;;;;6247141;28;20183;-74
2021/07/30 12:04:19;;;;;;;26.65;4.90;;;30.50;47.30;;;;;;6247270;28;20072;-74
2021/07/30 12:07:23;;;;;;;6.72;3.63;;;30.60;47.80;;;;;;6247203;28;20132;-75
2021/07/30 12:10:25;;;;;;;4.10;3.30;;;30.80;47.90;;;;;;6247058;28;20144;-74
2021/07/30 12:13:29;;;;;;;6.40;2.60;;;30.90;46.90;;;;;;6247355;28;20041;-74
2021/07/30 12:16:32;;;;;;;5.20;3.60;;;31.00;46.00;;;;;;6246862;28;20080;-74
2021/07/30 12:19:36;;;;;;;5.03;3.45;;;31.20;45.50;;;;;;6246674;28;20124;-74
2021/07/30 12:22:40;;;;;;;4.13;3.10;;;31.20;45.40;;;;;;6247204;28;20081;-74
2021/07/30 12:25:45;;;;;;;5.28;3.67;;;31.30;45.50;;;;;;6246711;28;20445;-74
2021/07/30 12:28:47;;;;;;;8.20;3.40;;;31.30;45.70;;;;;;6246781;28;20045;-74
2021/07/30 12:32:10;;;;;;;3.65;3.30;;;31.30;45.50;;;;;;6246750;28;20119;-74
2021/07/30 12:35:14;;;;;;;3.70;3.40;;;31.20;44.50;;;;;;6246422;28;20455;-74
2021/07/30 12:38:16;;;;;;;6.32;3.10;;;31.10;45.20;;;;;;6246561;28;20053;-74
2021/07/30 12:41:20;;;;;;;4.80;3.00;;;31.00;45.10;;;;;;6246328;28;20134;-74
2021/07/30 12:44:23;;;;;;;3.75;3.08;;;31.00;45.90;;;;;;6246548;28;20426;-74
2021/07/30 12:47:25;;;;;;;5.75;4.22;;;31.20;46.70;;;;;;6245668;28;20498;-74
2021/07/30 12:50:30;;;;;;;5.00;3.50;;;31.40;46.20;;;;;;6246665;28;20144;-75
2021/07/30 12:53:32;;;;;;;4.15;3.22;;;31.50;46.00;;;;;;6244925;28;20081;-74
2021/07/30 12:56:57;;;;;;;4.55;4.10;;;31.40;45.80;;;;;;6245600;28;20450;-75
2021/07/30 13:00:02;;;;;;;3.83;3.45;;;31.50;45.20;;;;;;6246072;28;20060;-75
2021/07/30 13:03:04;;;;;;;4.72;3.70;;;31.60;44.10;;;;;;6245955;28;20155;-75
2021/07/30 13:06:11;;;;;;;4.03;3.38;;;31.70;44.50;;;;;;6245745;28;20088;-75
2021/07/30 13:09:12;;;;;;;4.43;3.80;;;31.80;44.30;;;;;;6244906;28;20572;-75
2021/07/30 13:12:15;;;;;;;5.47;3.78;;;31.90;44.90;;;;;;6245362;28;20692;-75
2021/07/30 13:15:16;;;;;;;5.50;3.28;;;32.00;44.90;;;;;;6245846;28;20119;-75
2021/07/30 13:18:18;;;;;;;6.30;4.80;;;32.00;44.50;;;;;;6245190;28;20045;-74
2021/07/30 13:21:21;;;;;;;4.15;3.75;;;31.90;44.30;;;;;;6245851;28;20436;-75
2021/07/30 13:24:24;;;;;;;5.38;3.72;;;31.90;44.20;;;;;;6245652;28;20108;-75
2021/07/30 13:27:26;;;;;;;5.82;4.10;;;31.90;44.70;;;;;;6245358;28;20136;-74
2021/07/30 13:30:28;;;;;;;5.50;5.00;;;31.80;43.20;;;;;;6245520;28;20144;-75
2021/07/30 13:33:29;;;;;;;12.13;6.20;;;31.70;44.20;;;;;;6246131;28;20195;-75
2021/07/30 13:36:33;;;;;;;9.15;4.60;;;31.60;44.20;;;;;;6244967;28;20725;-75
2021/07/30 13:39:34;;;;;;;5.43;3.88;;;31.50;45.10;;;;;;6245506;28;20191;-75
2021/07/30 13:42:36;;;;;;;4.95;4.15;;;31.20;45.60;;;;;;6245391;28;20519;-75
2021/07/30 13:45:40;;;;;;;4.70;3.50;;;31.20;46.30;;;;;;6245622;28;20136;-74
2021/07/30 13:48:41;;;;;;;5.20;4.70;;;31.30;45.80;;;;;;6244942;28;20091;-74
2021/07/30 13:51:45;;;;;;;7.35;4.40;;;31.50;46.10;;;;;;6245247;28;20049;-73
2021/07/30 13:54:46;;;;;;;5.00;4.20;;;31.60;45.00;;;;;;6241275;28;20179;-74
2021/07/30 13:57:48;;;;;;;18.35;5.05;;;31.80;44.70;;;;;;6245181;28;20625;-75
2021/07/30 14:00:52;;;;;;;4.78;4.38;;;31.80;44.50;;;;;;6245364;28;20107;-75
2021/07/30 14:03:54;;;;;;;6.45;4.28;;;32.00;44.50;;;;;;6245007;28;20563;-74
2021/07/30 14:06:57;;;;;;;6.43;4.68;;;32.00;45.20;;;;;;6244991;28;20127;-74
2021/07/30 14:09:59;;;;;;;7.40;4.38;;;32.20;44.90;;;;;;6245339;28;20133;-75
2021/07/30 14:13:01;;;;;;;3.88;3.58;;;32.50;45.00;;;;;;6249256;28;20526;-75
2021/07/30 14:16:03;;;;;;;7.07;4.25;;;32.80;44.20;;;;;;6249278;28;20054;-75
2021/07/30 14:19:05;;;;;;;5.30;3.80;;;33.00;43.40;;;;;;6249686;28;20041;-75
2021/07/30 14:22:08;;;;;;;6.43;3.25;;;33.10;43.60;;;;;;6250482;28;20075;-75
2021/07/30 14:25:10;;;;;;;4.03;3.72;;;33.10;42.90;;;;;;6249390;28;20103;-75
2021/07/30 14:28:12;;;;;;;4.63;4.22;;;32.90;43.80;;;;;;6249055;28;20134;-76
2021/07/30 14:31:14;;;;;;;5.10;4.60;;;32.50;44.00;;;;;;6249560;28;20132;-76
2021/07/30 14:34:16;;;;;;;4.97;4.07;;;32.30;44.60;;;;;;6250044;28;20172;-75
2021/07/30 14:37:19;;;;;;;7.13;3.97;;;32.20;45.00;;;;;;6249204;28;20057;-76
2021/07/30 14:40:21;;;;;;;4.10;3.60;;;32.20;45.00;;;;;;6249648;28;20046;-75
2021/07/30 14:43:23;;;;;;;5.30;4.80;;;32.20;44.50;;;;;;6249336;28;20091;-75
2021/07/30 14:46:26;;;;;;;6.55;3.97;;;32.00;44.90;;;;;;6249165;28;20049;-75
2021/07/30 14:49:28;;;;;;;6.13;3.78;;;32.10;46.10;;;;;;6249509;28;20050;-76
2021/07/30 14:52:32;;;;;;;5.95;4.03;;;32.30;45.90;;;;;;6249757;28;20136;-78
2021/07/30 14:55:37;;;;;;;10.73;4.78;;;32.40;45.10;;;;;;6238119;28;20112;-77
2021/07/30 14:58:39;;;;;;;6.68;4.95;;;32.50;44.50;;;;;;6226364;28;20200;-77
2021/07/30 15:01:44;;;;;;;4.25;3.85;;;32.50;44.30;;;;;;6226088;28;20411;-77
2021/07/30 15:04:46;;;;;;;4.50;4.03;;;32.40;44.40;;;;;;6224418;28;20077;-76
2021/07/30 15:07:49;;;;;;;11.13;5.32;;;32.30;44.50;;;;;;6224286;28;20152;-76
2021/07/30 15:10:51;;;;;;;8.35;4.82;;;32.30;45.00;;;;;;6224154;28;20195;-77
2021/07/30 15:13:53;;;;;;;4.47;4.05;;;32.40;44.90;;;;;;6225851;28;20046;-76
2021/07/30 15:16:55;;;;;;;5.15;4.13;;;32.30;44.60;;;;;;6225195;28;20523;-77
2021/07/30 15:19:57;;;;;;;3.88;3.47;;;32.40;44.70;;;;;;6224594;28;20140;-77
2021/07/30 15:23:00;;;;;;;4.53;4.13;;;32.30;44.70;;;;;;6223184;28;20045;-76
2021/07/30 15:26:02;;;;;;;7.68;4.40;;;32.20;45.10;;;;;;6225152;28;20052;-78
2021/07/30 15:29:06;;;;;;;5.90;3.90;;;32.30;45.60;;;;;;6224139;28;20697;-78
2021/07/30 15:32:08;;;;;;;4.22;3.50;;;32.30;45.20;;;;;;6223922;28;20061;-77
2021/07/30 15:35:10;;;;;;;5.93;5.10;;;32.10;45.20;;;;;;6224809;28;20052;-77
2021/07/30 15:38:16;;;;;;;7.57;4.85;;;32.00;46.10;;;;;;6225308;28;20096;-77
2021/07/30 15:41:19;;;;;;;3.75;3.45;;;32.00;45.70;;;;;;6224032;28;20127;-77
2021/07/30 15:44:21;;;;;;;5.80;3.63;;;31.90;46.10;;;;;;6223465;28;20145;-77
2021/07/30 15:47:23;;;;;;;7.60;4.32;;;31.80;45.80;;;;;;6223330;28;20221;-76
2021/07/30 15:50:25;;;;;;;4.18;3.78;;;31.80;46.00;;;;;;6223690;28;20053;-77